Terminal Aerodrome Forecast
Issued by NWS

Home | Current Version | Previous Version | Graphics & Text | Print | Product List | Glossary On
Versions: 1 2 3 4 5 6 7 8 9 10 11 12 13 14 15 16 17 18 19 20 21 22 23 24
090
FTUS43 KLOT 202326
TAFMDW
TAF
KMDW 202326Z 2100/2124 29013G21KT P6SM SCT050
     FM210200 29010KT P6SM FEW050
     FM211500 31012G20KT P6SM SCT035 BKN050=

USA.gov is the U.S. government's official web portal to all federal, state and local government web resources and services.